メインページ
METAR-TAF:

METAR-TAF

空港 :

岐阜基地

岐阜, 日本

緯度: 35-23N, 経度: 136-52E, 海抜: 39m

現時点の気象観測

当レポートは10時間22分前の01:41(UTC)に作成
変向風 2kt
気温 19°C
湿度 49%
気圧 1017 hPa
視程10km以上
高度2500ftの雲はほとんどない
高度4000ftの雲は散在している
高度25000ftの千切れ雲あり

METAR: RJNG 200141Z VRB02KT 9999 FEW025 SCT040 BKN250 19/08 Q1017 RMK 1CU025 4SC040 A3004

時間: 21:03 (12:03 UTC)


TAF: 見つかりません

4,000以上の空港の気象観測と天気予報(METAR報とTAF報)

利用可能な観測所は地図上に黄色い丸と赤い丸で示す。

丸の上にカーソルを重ねると観測所名を参照できる。

次にクリックすると気象観測と天気予報を参照できる。

マップの切り替え:黒色「×」印の緑ボタンをクリックして拡大、「-」印の緑ボタンをクリックして縮小、緑色の三角印をクリックして隣りの地図に切り替え


METAR-TAF: